sensor_id;sensor_type;location;lat;lon;timestamp;P1;durP1;ratioP1;P2;durP2;ratioP2
7919;SDS011;18778;47.610;9.776;2023-04-25T00:01:22;5.83;;;4.90;;
7919;SDS011;18778;47.610;9.776;2023-04-25T00:03:48;4.67;;;4.27;;
7919;SDS011;18778;47.610;9.776;2023-04-25T00:06:14;5.10;;;4.47;;
7919;SDS011;18778;47.610;9.776;2023-04-25T00:08:40;5.67;;;4.47;;
7919;SDS011;18778;47.610;9.776;2023-04-25T00:11:06;5.40;;;4.47;;
7919;SDS011;18778;47.610;9.776;2023-04-25T00:13:35;4.70;;;4.20;;
7919;SDS011;18778;47.610;9.776;2023-04-25T00:16:01;6.73;;;5.13;;
7919;SDS011;18778;47.610;9.776;2023-04-25T00:18:30;4.80;;;4.40;;
7919;SDS011;18778;47.610;9.776;2023-04-25T00:20:58;4.70;;;4.30;;
7919;SDS011;18778;47.610;9.776;2023-04-25T00:23:24;5.30;;;4.80;;
7919;SDS011;18778;47.610;9.776;2023-04-25T00:25:50;5.70;;;5.10;;
7919;SDS011;18778;47.610;9.776;2023-04-25T00:28:16;6.20;;;5.40;;
7919;SDS011;18778;47.610;9.776;2023-04-25T00:30:42;5.97;;;5.33;;
7919;SDS011;18778;47.610;9.776;2023-04-25T00:33:09;7.83;;;5.13;;
7919;SDS011;18778;47.610;9.776;2023-04-25T00:35:35;6.17;;;5.13;;
7919;SDS011;18778;47.610;9.776;2023-04-25T00:38:01;6.50;;;5.10;;
7919;SDS011;18778;47.610;9.776;2023-04-25T00:40:27;6.50;;;5.83;;
7919;SDS011;18778;47.610;9.776;2023-04-25T00:42:53;7.73;;;6.20;;
7919;SDS011;18778;47.610;9.776;2023-04-25T00:45:20;6.50;;;5.40;;
7919;SDS011;18778;47.610;9.776;2023-04-25T00:47:46;9.57;;;5.67;;
7919;SDS011;18778;47.610;9.776;2023-04-25T00:50:13;6.50;;;5.90;;
7919;SDS011;18778;47.610;9.776;2023-04-25T00:52:40;6.47;;;5.70;;
7919;SDS011;18778;47.610;9.776;2023-04-25T00:55:07;8.57;;;5.73;;
7919;SDS011;18778;47.610;9.776;2023-04-25T00:57:33;6.87;;;6.13;;
7919;SDS011;18778;47.610;9.776;2023-04-25T00:59:59;6.03;;;5.47;;
7919;SDS011;18778;47.610;9.776;2023-04-25T01:02:25;7.60;;;6.10;;
7919;SDS011;18778;47.610;9.776;2023-04-25T01:04:52;6.07;;;5.53;;
7919;SDS011;18778;47.610;9.776;2023-04-25T01:07:17;6.87;;;6.03;;
7919;SDS011;18778;47.610;9.776;2023-04-25T01:09:43;6.07;;;5.07;;
7919;SDS011;18778;47.610;9.776;2023-04-25T01:12:09;6.53;;;5.20;;
7919;SDS011;18778;47.610;9.776;2023-04-25T01:14:35;6.73;;;5.20;;
7919;SDS011;18778;47.610;9.776;2023-04-25T01:17:01;5.77;;;5.20;;
7919;SDS011;18778;47.610;9.776;2023-04-25T01:19:27;6.70;;;5.40;;
7919;SDS011;18778;47.610;9.776;2023-04-25T01:21:53;6.60;;;5.70;;
7919;SDS011;18778;47.610;9.776;2023-04-25T01:24:19;9.50;;;5.67;;
7919;SDS011;18778;47.610;9.776;2023-04-25T01:26:46;6.40;;;5.80;;
7919;SDS011;18778;47.610;9.776;2023-04-25T01:29:18;6.03;;;5.43;;
7919;SDS011;18778;47.610;9.776;2023-04-25T01:31:45;6.20;;;5.50;;
7919;SDS011;18778;47.610;9.776;2023-04-25T01:34:14;5.83;;;5.33;;
7919;SDS011;18778;47.610;9.776;2023-04-25T01:36:40;5.97;;;5.47;;
7919;SDS011;18778;47.610;9.776;2023-04-25T01:39:06;8.10;;;5.77;;
7919;SDS011;18778;47.610;9.776;2023-04-25T01:41:32;6.23;;;5.63;;
7919;SDS011;18778;47.610;9.776;2023-04-25T01:43:59;6.87;;;5.63;;
7919;SDS011;18778;47.610;9.776;2023-04-25T01:46:26;8.33;;;5.20;;
7919;SDS011;18778;47.610;9.776;2023-04-25T01:48:52;5.90;;;4.80;;
7919;SDS011;18778;47.610;9.776;2023-04-25T01:51:18;5.47;;;4.83;;
7919;SDS011;18778;47.610;9.776;2023-04-25T01:53:44;6.17;;;4.80;;
7919;SDS011;18778;47.610;9.776;2023-04-25T01:56:10;6.57;;;4.83;;
7919;SDS011;18778;47.610;9.776;2023-04-25T01:58:35;4.83;;;4.43;;
7919;SDS011;18778;47.610;9.776;2023-04-25T02:01:01;4.57;;;4.10;;
7919;SDS011;18778;47.610;9.776;2023-04-25T02:03:27;5.83;;;4.57;;
7919;SDS011;18778;47.610;9.776;2023-04-25T02:05:53;4.40;;;4.00;;
7919;SDS011;18778;47.610;9.776;2023-04-25T02:08:19;6.87;;;4.50;;
7919;SDS011;18778;47.610;9.776;2023-04-25T02:10:45;5.23;;;4.40;;
7919;SDS011;18778;47.610;9.776;2023-04-25T02:13:11;6.73;;;4.07;;
7919;SDS011;18778;47.610;9.776;2023-04-25T02:15:37;7.50;;;4.33;;
7919;SDS011;18778;47.610;9.776;2023-04-25T02:18:05;6.33;;;4.17;;
7919;SDS011;18778;47.610;9.776;2023-04-25T02:20:31;4.30;;;3.90;;
7919;SDS011;18778;47.610;9.776;2023-04-25T02:22:57;4.80;;;4.40;;
7919;SDS011;18778;47.610;9.776;2023-04-25T02:25:23;4.60;;;4.20;;
7919;SDS011;18778;47.610;9.776;2023-04-25T02:27:49;7.87;;;4.37;;
7919;SDS011;18778;47.610;9.776;2023-04-25T02:30:16;11.00;;;4.50;;
7919;SDS011;18778;47.610;9.776;2023-04-25T02:32:42;4.73;;;4.33;;
7919;SDS011;18778;47.610;9.776;2023-04-25T02:35:08;7.03;;;5.40;;
7919;SDS011;18778;47.610;9.776;2023-04-25T02:37:34;5.70;;;5.03;;
7919;SDS011;18778;47.610;9.776;2023-04-25T02:40:02;8.07;;;5.57;;
7919;SDS011;18778;47.610;9.776;2023-04-25T02:42:29;6.10;;;5.50;;
7919;SDS011;18778;47.610;9.776;2023-04-25T02:44:54;5.20;;;4.70;;
7919;SDS011;18778;47.610;9.776;2023-04-25T02:47:20;8.07;;;5.23;;
7919;SDS011;18778;47.610;9.776;2023-04-25T02:49:46;6.23;;;5.63;;
7919;SDS011;18778;47.610;9.776;2023-04-25T02:52:12;7.23;;;6.00;;
7919;SDS011;18778;47.610;9.776;2023-04-25T02:54:39;7.57;;;6.13;;
7919;SDS011;18778;47.610;9.776;2023-04-25T02:57:06;6.87;;;6.17;;
7919;SDS011;18778;47.610;9.776;2023-04-25T02:59:32;6.93;;;5.90;;
7919;SDS011;18778;47.610;9.776;2023-04-25T03:01:58;6.50;;;5.80;;
7919;SDS011;18778;47.610;9.776;2023-04-25T03:04:24;6.43;;;5.83;;
7919;SDS011;18778;47.610;9.776;2023-04-25T03:06:50;6.73;;;6.07;;
7919;SDS011;18778;47.610;9.776;2023-04-25T03:09:16;7.60;;;6.17;;
7919;SDS011;18778;47.610;9.776;2023-04-25T03:11:42;7.23;;;6.07;;
7919;SDS011;18778;47.610;9.776;2023-04-25T03:14:08;6.67;;;6.00;;
7919;SDS011;18778;47.610;9.776;2023-04-25T03:16:34;6.87;;;6.03;;
7919;SDS011;18778;47.610;9.776;2023-04-25T03:18:59;7.30;;;5.93;;
7919;SDS011;18778;47.610;9.776;2023-04-25T03:21:25;9.00;;;5.40;;
7919;SDS011;18778;47.610;9.776;2023-04-25T03:23:51;7.60;;;5.80;;
7919;SDS011;18778;47.610;9.776;2023-04-25T03:26:17;6.97;;;5.83;;
7919;SDS011;18778;47.610;9.776;2023-04-25T03:28:43;7.63;;;5.77;;
7919;SDS011;18778;47.610;9.776;2023-04-25T03:31:09;6.73;;;6.13;;
7919;SDS011;18778;47.610;9.776;2023-04-25T03:33:35;7.63;;;6.20;;
7919;SDS011;18778;47.610;9.776;2023-04-25T03:36:01;11.10;;;6.37;;
7919;SDS011;18778;47.610;9.776;2023-04-25T03:38:27;7.77;;;6.20;;
7919;SDS011;18778;47.610;9.776;2023-04-25T03:40:53;6.73;;;6.03;;
7919;SDS011;18778;47.610;9.776;2023-04-25T03:43:19;6.63;;;5.93;;
7919;SDS011;18778;47.610;9.776;2023-04-25T03:45:45;8.43;;;6.00;;
7919;SDS011;18778;47.610;9.776;2023-04-25T03:48:11;7.13;;;5.90;;
7919;SDS011;18778;47.610;9.776;2023-04-25T03:50:36;6.60;;;5.73;;
7919;SDS011;18778;47.610;9.776;2023-04-25T03:53:02;8.43;;;5.63;;
7919;SDS011;18778;47.610;9.776;2023-04-25T03:55:28;7.00;;;5.43;;
7919;SDS011;18778;47.610;9.776;2023-04-25T03:57:54;6.20;;;5.60;;
7919;SDS011;18778;47.610;9.776;2023-04-25T04:00:20;7.97;;;6.17;;
7919;SDS011;18778;47.610;9.776;2023-04-25T04:02:46;9.53;;;5.93;;
7919;SDS011;18778;47.610;9.776;2023-04-25T04:05:12;7.23;;;5.93;;
7919;SDS011;18778;47.610;9.776;2023-04-25T04:07:37;7.57;;;6.07;;
7919;SDS011;18778;47.610;9.776;2023-04-25T04:10:08;7.87;;;6.40;;
7919;SDS011;18778;47.610;9.776;2023-04-25T04:12:35;7.53;;;6.47;;
7919;SDS011;18778;47.610;9.776;2023-04-25T04:15:04;10.70;;;7.00;;
7919;SDS011;18778;47.610;9.776;2023-04-25T04:17:31;7.53;;;6.70;;
7919;SDS011;18778;47.610;9.776;2023-04-25T04:19:56;9.40;;;6.23;;
7919;SDS011;18778;47.610;9.776;2023-04-25T04:22:22;6.57;;;5.87;;
7919;SDS011;18778;47.610;9.776;2023-04-25T04:24:48;9.37;;;6.07;;
7919;SDS011;18778;47.610;9.776;2023-04-25T04:27:21;8.83;;;6.20;;
7919;SDS011;18778;47.610;9.776;2023-04-25T04:29:47;8.23;;;6.80;;
7919;SDS011;18778;47.610;9.776;2023-04-25T04:32:14;7.83;;;6.47;;
7919;SDS011;18778;47.610;9.776;2023-04-25T04:34:40;6.87;;;6.23;;
7919;SDS011;18778;47.610;9.776;2023-04-25T04:37:06;9.60;;;6.20;;
7919;SDS011;18778;47.610;9.776;2023-04-25T04:39:32;9.30;;;7.07;;
7919;SDS011;18778;47.610;9.776;2023-04-25T04:41:58;12.57;;;7.73;;
7919;SDS011;18778;47.610;9.776;2023-04-25T04:44:26;8.67;;;7.03;;
7919;SDS011;18778;47.610;9.776;2023-04-25T04:46:53;11.93;;;8.07;;
7919;SDS011;18778;47.610;9.776;2023-04-25T04:49:19;10.63;;;7.43;;
7919;SDS011;18778;47.610;9.776;2023-04-25T04:51:45;8.87;;;7.77;;
7919;SDS011;18778;47.610;9.776;2023-04-25T04:54:11;9.80;;;7.40;;
7919;SDS011;18778;47.610;9.776;2023-04-25T04:56:38;10.67;;;9.23;;
7919;SDS011;18778;47.610;9.776;2023-04-25T04:59:04;11.07;;;7.90;;
7919;SDS011;18778;47.610;9.776;2023-04-25T05:01:30;12.30;;;8.30;;
7919;SDS011;18778;47.610;9.776;2023-04-25T05:03:56;9.57;;;7.40;;
7919;SDS011;18778;47.610;9.776;2023-04-25T05:06:25;8.53;;;7.17;;
7919;SDS011;18778;47.610;9.776;2023-04-25T05:08:52;9.73;;;7.23;;
7919;SDS011;18778;47.610;9.776;2023-04-25T05:11:18;9.57;;;7.13;;
7919;SDS011;18778;47.610;9.776;2023-04-25T05:13:53;13.07;;;6.93;;
7919;SDS011;18778;47.610;9.776;2023-04-25T05:16:45;11.63;;;7.03;;
7919;SDS011;18778;47.610;9.776;2023-04-25T05:19:11;7.63;;;6.87;;
7919;SDS011;18778;47.610;9.776;2023-04-25T05:21:37;10.03;;;6.40;;
7919;SDS011;18778;47.610;9.776;2023-04-25T05:24:03;7.67;;;6.40;;
7919;SDS011;18778;47.610;9.776;2023-04-25T05:26:30;10.30;;;6.70;;
7919;SDS011;18778;47.610;9.776;2023-04-25T05:28:58;8.23;;;6.63;;
7919;SDS011;18778;47.610;9.776;2023-04-25T05:31:24;7.73;;;6.90;;
7919;SDS011;18778;47.610;9.776;2023-04-25T05:33:50;9.20;;;7.47;;
7919;SDS011;18778;47.610;9.776;2023-04-25T05:36:18;8.37;;;6.17;;
7919;SDS011;18778;47.610;9.776;2023-04-25T05:38:44;8.67;;;5.90;;
7919;SDS011;18778;47.610;9.776;2023-04-25T05:41:10;5.73;;;5.07;;
7919;SDS011;18778;47.610;9.776;2023-04-25T05:43:36;7.43;;;5.13;;
7919;SDS011;18778;47.610;9.776;2023-04-25T05:46:02;5.37;;;4.87;;
7919;SDS011;18778;47.610;9.776;2023-04-25T05:48:28;6.93;;;4.73;;
7919;SDS011;18778;47.610;9.776;2023-04-25T05:50:55;7.53;;;4.23;;
7919;SDS011;18778;47.610;9.776;2023-04-25T05:53:21;7.33;;;4.87;;
7919;SDS011;18778;47.610;9.776;2023-04-25T05:55:47;5.40;;;4.73;;
7919;SDS011;18778;47.610;9.776;2023-04-25T05:58:13;9.97;;;5.00;;
7919;SDS011;18778;47.610;9.776;2023-04-25T06:00:39;6.73;;;5.10;;
7919;SDS011;18778;47.610;9.776;2023-04-25T06:03:06;6.27;;;4.70;;
7919;SDS011;18778;47.610;9.776;2023-04-25T06:05:35;4.60;;;4.20;;
7919;SDS011;18778;47.610;9.776;2023-04-25T06:08:01;6.70;;;4.37;;
7919;SDS011;18778;47.610;9.776;2023-04-25T06:10:27;4.83;;;4.43;;
7919;SDS011;18778;47.610;9.776;2023-04-25T06:12:53;6.87;;;4.57;;
7919;SDS011;18778;47.610;9.776;2023-04-25T06:15:19;5.50;;;4.30;;
7919;SDS011;18778;47.610;9.776;2023-04-25T06:17:45;5.50;;;4.00;;
7919;SDS011;18778;47.610;9.776;2023-04-25T06:20:11;5.37;;;4.10;;
7919;SDS011;18778;47.610;9.776;2023-04-25T06:22:37;5.07;;;3.70;;
7919;SDS011;18778;47.610;9.776;2023-04-25T06:25:02;5.83;;;3.50;;
7919;SDS011;18778;47.610;9.776;2023-04-25T06:27:29;7.57;;;5.20;;
7919;SDS011;18778;47.610;9.776;2023-04-25T06:29:55;12.93;;;6.50;;
7919;SDS011;18778;47.610;9.776;2023-04-25T06:32:21;16.30;;;5.93;;
7919;SDS011;18778;47.610;9.776;2023-04-25T06:34:46;4.90;;;4.40;;
7919;SDS011;18778;47.610;9.776;2023-04-25T06:37:12;8.90;;;6.03;;
7919;SDS011;18778;47.610;9.776;2023-04-25T06:39:38;9.73;;;5.03;;
7919;SDS011;18778;47.610;9.776;2023-04-25T06:42:04;7.60;;;5.23;;
7919;SDS011;18778;47.610;9.776;2023-04-25T06:44:29;5.17;;;4.27;;
7919;SDS011;18778;47.610;9.776;2023-04-25T06:46:56;6.57;;;4.57;;
7919;SDS011;18778;47.610;9.776;2023-04-25T06:49:21;6.80;;;4.37;;
7919;SDS011;18778;47.610;9.776;2023-04-25T06:51:47;15.00;;;7.83;;
7919;SDS011;18778;47.610;9.776;2023-04-25T06:54:13;15.40;;;8.93;;
7919;SDS011;18778;47.610;9.776;2023-04-25T06:56:38;7.57;;;4.73;;
7919;SDS011;18778;47.610;9.776;2023-04-25T06:59:04;5.37;;;4.17;;
7919;SDS011;18778;47.610;9.776;2023-04-25T07:01:30;8.70;;;5.50;;
7919;SDS011;18778;47.610;9.776;2023-04-25T07:03:56;7.40;;;4.37;;
7919;SDS011;18778;47.610;9.776;2023-04-25T07:06:21;6.83;;;3.90;;
7919;SDS011;18778;47.610;9.776;2023-04-25T07:08:47;5.80;;;3.40;;
7919;SDS011;18778;47.610;9.776;2023-04-25T07:11:13;4.73;;;3.77;;
7919;SDS011;18778;47.610;9.776;2023-04-25T07:13:39;6.33;;;2.90;;
7919;SDS011;18778;47.610;9.776;2023-04-25T07:16:05;3.97;;;3.20;;
7919;SDS011;18778;47.610;9.776;2023-04-25T07:18:31;3.17;;;2.87;;
7919;SDS011;18778;47.610;9.776;2023-04-25T07:20:57;4.87;;;2.67;;
7919;SDS011;18778;47.610;9.776;2023-04-25T07:23:25;7.07;;;4.30;;
7919;SDS011;18778;47.610;9.776;2023-04-25T07:25:55;8.60;;;4.50;;
7919;SDS011;18778;47.610;9.776;2023-04-25T07:28:21;6.83;;;4.63;;
7919;SDS011;18778;47.610;9.776;2023-04-25T07:30:47;3.83;;;3.40;;
7919;SDS011;18778;47.610;9.776;2023-04-25T07:33:13;4.10;;;3.33;;
7919;SDS011;18778;47.610;9.776;2023-04-25T07:35:41;5.27;;;3.50;;
7919;SDS011;18778;47.610;9.776;2023-04-25T07:38:09;3.60;;;3.20;;
7919;SDS011;18778;47.610;9.776;2023-04-25T07:40:35;3.50;;;3.20;;
7919;SDS011;18778;47.610;9.776;2023-04-25T07:43:01;4.80;;;3.07;;
7919;SDS011;18778;47.610;9.776;2023-04-25T07:45:27;3.80;;;2.80;;
7919;SDS011;18778;47.610;9.776;2023-04-25T07:47:53;6.90;;;3.80;;
7919;SDS011;18778;47.610;9.776;2023-04-25T07:50:19;5.50;;;2.90;;
7919;SDS011;18778;47.610;9.776;2023-04-25T07:52:45;6.43;;;2.57;;
7919;SDS011;18778;47.610;9.776;2023-04-25T07:55:11;6.30;;;3.87;;
7919;SDS011;18778;47.610;9.776;2023-04-25T07:57:37;3.47;;;3.17;;
7919;SDS011;18778;47.610;9.776;2023-04-25T08:00:04;4.27;;;3.27;;
7919;SDS011;18778;47.610;9.776;2023-04-25T08:02:34;4.87;;;2.80;;
7919;SDS011;18778;47.610;9.776;2023-04-25T08:05:01;6.10;;;2.63;;
7919;SDS011;18778;47.610;9.776;2023-04-25T08:07:27;3.63;;;2.60;;
7919;SDS011;18778;47.610;9.776;2023-04-25T08:09:53;4.37;;;2.80;;
7919;SDS011;18778;47.610;9.776;2023-04-25T08:12:19;4.13;;;2.43;;
7919;SDS011;18778;47.610;9.776;2023-04-25T08:14:45;6.20;;;2.77;;
7919;SDS011;18778;47.610;9.776;2023-04-25T08:17:11;5.23;;;2.70;;
7919;SDS011;18778;47.610;9.776;2023-04-25T08:19:37;5.13;;;2.40;;
7919;SDS011;18778;47.610;9.776;2023-04-25T08:22:04;3.80;;;2.60;;
7919;SDS011;18778;47.610;9.776;2023-04-25T08:24:30;5.57;;;2.90;;
7919;SDS011;18778;47.610;9.776;2023-04-25T08:27:03;4.17;;;2.60;;
7919;SDS011;18778;47.610;9.776;2023-04-25T08:29:29;4.17;;;3.20;;
7919;SDS011;18778;47.610;9.776;2023-04-25T08:31:58;6.17;;;3.20;;
7919;SDS011;18778;47.610;9.776;2023-04-25T08:34:26;4.37;;;3.30;;
7919;SDS011;18778;47.610;9.776;2023-04-25T08:36:52;4.53;;;4.00;;
7919;SDS011;18778;47.610;9.776;2023-04-25T08:39:18;4.23;;;3.83;;
7919;SDS011;18778;47.610;9.776;2023-04-25T08:41:47;6.80;;;3.93;;
7919;SDS011;18778;47.610;9.776;2023-04-25T08:44:13;6.03;;;3.90;;
7919;SDS011;18778;47.610;9.776;2023-04-25T08:46:45;4.40;;;3.63;;
7919;SDS011;18778;47.610;9.776;2023-04-25T08:49:14;4.00;;;3.60;;
7919;SDS011;18778;47.610;9.776;2023-04-25T08:51:46;4.03;;;3.60;;
7919;SDS011;18778;47.610;9.776;2023-04-25T08:54:16;5.90;;;4.13;;
7919;SDS011;18778;47.610;9.776;2023-04-25T08:56:45;3.93;;;3.60;;
7919;SDS011;18778;47.610;9.776;2023-04-25T08:59:15;4.07;;;3.37;;
7919;SDS011;18778;47.610;9.776;2023-04-25T09:01:42;4.53;;;3.10;;
7919;SDS011;18778;47.610;9.776;2023-04-25T09:04:08;3.67;;;3.17;;
7919;SDS011;18778;47.610;9.776;2023-04-25T09:06:34;4.20;;;3.30;;
7919;SDS011;18778;47.610;9.776;2023-04-25T09:09:01;7.57;;;3.77;;
7919;SDS011;18778;47.610;9.776;2023-04-25T09:11:28;6.17;;;3.77;;
7919;SDS011;18778;47.610;9.776;2023-04-25T09:14:09;4.53;;;3.40;;
7919;SDS011;18778;47.610;9.776;2023-04-25T09:16:35;3.80;;;3.20;;
7919;SDS011;18778;47.610;9.776;2023-04-25T09:19:01;4.43;;;3.27;;
7919;SDS011;18778;47.610;9.776;2023-04-25T09:21:27;3.27;;;2.97;;
7919;SDS011;18778;47.610;9.776;2023-04-25T09:23:55;6.00;;;3.30;;
7919;SDS011;18778;47.610;9.776;2023-04-25T09:26:23;5.97;;;3.30;;
7919;SDS011;18778;47.610;9.776;2023-04-25T09:28:49;5.13;;;3.73;;
7919;SDS011;18778;47.610;9.776;2023-04-25T09:31:31;4.07;;;3.33;;
7919;SDS011;18778;47.610;9.776;2023-04-25T09:33:59;3.20;;;2.90;;
7919;SDS011;18778;47.610;9.776;2023-04-25T09:36:29;3.70;;;3.23;;
7919;SDS011;18778;47.610;9.776;2023-04-25T09:38:55;5.03;;;3.30;;
7919;SDS011;18778;47.610;9.776;2023-04-25T09:41:24;7.30;;;3.63;;
7919;SDS011;18778;47.610;9.776;2023-04-25T09:43:50;5.50;;;4.07;;
7919;SDS011;18778;47.610;9.776;2023-04-25T09:46:16;5.27;;;4.03;;
7919;SDS011;18778;47.610;9.776;2023-04-25T09:48:49;5.70;;;3.90;;
7919;SDS011;18778;47.610;9.776;2023-04-25T09:51:16;4.43;;;3.73;;
7919;SDS011;18778;47.610;9.776;2023-04-25T09:53:42;8.37;;;4.07;;
7919;SDS011;18778;47.610;9.776;2023-04-25T09:56:09;6.60;;;4.40;;
7919;SDS011;18778;47.610;9.776;2023-04-25T09:58:36;4.40;;;3.90;;
7919;SDS011;18778;47.610;9.776;2023-04-25T10:01:03;6.00;;;3.70;;
7919;SDS011;18778;47.610;9.776;2023-04-25T10:03:30;4.57;;;4.00;;
7919;SDS011;18778;47.610;9.776;2023-04-25T10:05:58;4.20;;;3.80;;
7919;SDS011;18778;47.610;9.776;2023-04-25T10:08:25;3.90;;;3.60;;
7919;SDS011;18778;47.610;9.776;2023-04-25T10:10:54;4.53;;;3.93;;
7919;SDS011;18778;47.610;9.776;2023-04-25T10:13:20;4.07;;;3.67;;
7919;SDS011;18778;47.610;9.776;2023-04-25T10:15:46;5.10;;;3.90;;
7919;SDS011;18778;47.610;9.776;2023-04-25T10:18:12;3.10;;;2.63;;
7919;SDS011;18778;47.610;9.776;2023-04-25T10:20:38;3.33;;;2.23;;
7919;SDS011;18778;47.610;9.776;2023-04-25T10:23:11;2.53;;;1.90;;
7919;SDS011;18778;47.610;9.776;2023-04-25T10:25:38;2.10;;;2.00;;
7919;SDS011;18778;47.610;9.776;2023-04-25T10:28:05;2.37;;;2.20;;
7919;SDS011;18778;47.610;9.776;2023-04-25T10:30:31;2.83;;;2.63;;
7919;SDS011;18778;47.610;9.776;2023-04-25T10:32:58;2.20;;;2.10;;
7919;SDS011;18778;47.610;9.776;2023-04-25T10:35:25;2.60;;;2.50;;
7919;SDS011;18778;47.610;9.776;2023-04-25T10:38:04;2.73;;;2.50;;
7919;SDS011;18778;47.610;9.776;2023-04-25T10:40:31;3.03;;;2.83;;
7919;SDS011;18778;47.610;9.776;2023-04-25T10:46:02;3.23;;;2.93;;
7919;SDS011;18778;47.610;9.776;2023-04-25T10:48:38;3.30;;;3.10;;
7919;SDS011;18778;47.610;9.776;2023-04-25T10:51:09;4.50;;;3.67;;
7919;SDS011;18778;47.610;9.776;2023-04-25T10:53:36;3.40;;;3.10;;
7919;SDS011;18778;47.610;9.776;2023-04-25T10:56:11;3.70;;;3.40;;
7919;SDS011;18778;47.610;9.776;2023-04-25T10:58:47;3.43;;;3.10;;
7919;SDS011;18778;47.610;9.776;2023-04-25T11:01:13;5.77;;;3.70;;
7919;SDS011;18778;47.610;9.776;2023-04-25T11:03:43;3.77;;;3.23;;
7919;SDS011;18778;47.610;9.776;2023-04-25T11:08:49;3.23;;;2.90;;
7919;SDS011;18778;47.610;9.776;2023-04-25T11:11:16;3.67;;;3.10;;
7919;SDS011;18778;47.610;9.776;2023-04-25T11:13:42;3.40;;;2.90;;
7919;SDS011;18778;47.610;9.776;2023-04-25T11:16:08;3.10;;;2.80;;
7919;SDS011;18778;47.610;9.776;2023-04-25T11:18:34;3.07;;;2.87;;
7919;SDS011;18778;47.610;9.776;2023-04-25T11:21:02;3.40;;;2.90;;
7919;SDS011;18778;47.610;9.776;2023-04-25T11:23:28;2.63;;;2.47;;
7919;SDS011;18778;47.610;9.776;2023-04-25T11:25:55;3.20;;;2.90;;
7919;SDS011;18778;47.610;9.776;2023-04-25T11:28:22;3.10;;;2.80;;
7919;SDS011;18778;47.610;9.776;2023-04-25T11:30:51;2.83;;;2.50;;
7919;SDS011;18778;47.610;9.776;2023-04-25T11:33:17;2.67;;;2.23;;
7919;SDS011;18778;47.610;9.776;2023-04-25T11:35:43;2.00;;;1.90;;
7919;SDS011;18778;47.610;9.776;2023-04-25T11:38:09;2.77;;;2.40;;
7919;SDS011;18778;47.610;9.776;2023-04-25T11:40:36;1.80;;;1.70;;
7919;SDS011;18778;47.610;9.776;2023-04-25T11:43:02;2.00;;;1.90;;
7919;SDS011;18778;47.610;9.776;2023-04-25T11:45:28;1.73;;;1.63;;
7919;SDS011;18778;47.610;9.776;2023-04-25T11:47:59;1.80;;;1.70;;
7919;SDS011;18778;47.610;9.776;2023-04-25T11:50:25;1.80;;;1.70;;
7919;SDS011;18778;47.610;9.776;2023-04-25T11:52:55;1.50;;;1.40;;
7919;SDS011;18778;47.610;9.776;2023-04-25T11:55:22;1.70;;;1.70;;
7919;SDS011;18778;47.610;9.776;2023-04-25T11:57:48;1.60;;;1.60;;
7919;SDS011;18778;47.610;9.776;2023-04-25T12:00:21;1.40;;;1.40;;
7919;SDS011;18778;47.610;9.776;2023-04-25T12:02:50;0.90;;;0.90;;
7919;SDS011;18778;47.610;9.776;2023-04-25T12:05:16;1.53;;;1.43;;
7919;SDS011;18778;47.610;9.776;2023-04-25T12:07:42;1.40;;;1.30;;
7919;SDS011;18778;47.610;9.776;2023-04-25T12:10:10;1.50;;;1.40;;
7919;SDS011;18778;47.610;9.776;2023-04-25T12:12:37;1.20;;;1.20;;
7919;SDS011;18778;47.610;9.776;2023-04-25T12:15:11;1.43;;;1.43;;
7919;SDS011;18778;47.610;9.776;2023-04-25T12:17:38;1.77;;;1.30;;
7919;SDS011;18778;47.610;9.776;2023-04-25T12:20:08;1.90;;;1.30;;
7919;SDS011;18778;47.610;9.776;2023-04-25T12:22:35;1.50;;;1.50;;
7919;SDS011;18778;47.610;9.776;2023-04-25T12:25:01;1.60;;;1.50;;
7919;SDS011;18778;47.610;9.776;2023-04-25T12:27:30;1.70;;;1.60;;
7919;SDS011;18778;47.610;9.776;2023-04-25T12:29:56;1.90;;;1.70;;
7919;SDS011;18778;47.610;9.776;2023-04-25T12:32:22;1.50;;;1.50;;
7919;SDS011;18778;47.610;9.776;2023-04-25T12:34:49;2.90;;;1.80;;
7919;SDS011;18778;47.610;9.776;2023-04-25T12:37:15;1.77;;;1.77;;
7919;SDS011;18778;47.610;9.776;2023-04-25T12:39:42;1.60;;;1.50;;
7919;SDS011;18778;47.610;9.776;2023-04-25T12:42:09;1.50;;;1.50;;
7919;SDS011;18778;47.610;9.776;2023-04-25T12:44:38;1.40;;;1.40;;
7919;SDS011;18778;47.610;9.776;2023-04-25T12:47:04;1.77;;;1.67;;
7919;SDS011;18778;47.610;9.776;2023-04-25T12:49:30;1.60;;;1.50;;
7919;SDS011;18778;47.610;9.776;2023-04-25T12:51:58;1.80;;;1.70;;
7919;SDS011;18778;47.610;9.776;2023-04-25T12:54:24;1.30;;;1.30;;
7919;SDS011;18778;47.610;9.776;2023-04-25T12:56:50;1.20;;;1.20;;
7919;SDS011;18778;47.610;9.776;2023-04-25T12:59:17;1.30;;;1.30;;
7919;SDS011;18778;47.610;9.776;2023-04-25T13:01:45;1.10;;;1.10;;
7919;SDS011;18778;47.610;9.776;2023-04-25T13:04:11;1.10;;;1.10;;
7919;SDS011;18778;47.610;9.776;2023-04-25T13:06:37;1.10;;;1.10;;
7919;SDS011;18778;47.610;9.776;2023-04-25T13:09:03;1.40;;;1.30;;
7919;SDS011;18778;47.610;9.776;2023-04-25T13:11:29;1.30;;;1.20;;
7919;SDS011;18778;47.610;9.776;2023-04-25T13:13:56;1.17;;;1.17;;
7919;SDS011;18778;47.610;9.776;2023-04-25T13:16:22;1.30;;;1.30;;
7919;SDS011;18778;47.610;9.776;2023-04-25T13:18:48;1.30;;;1.30;;
7919;SDS011;18778;47.610;9.776;2023-04-25T13:21:14;1.33;;;1.23;;
7919;SDS011;18778;47.610;9.776;2023-04-25T13:23:40;1.10;;;1.10;;
7919;SDS011;18778;47.610;9.776;2023-04-25T13:26:08;1.20;;;1.20;;
7919;SDS011;18778;47.610;9.776;2023-04-25T13:28:34;1.97;;;1.20;;
7919;SDS011;18778;47.610;9.776;2023-04-25T13:31:00;1.00;;;1.00;;
7919;SDS011;18778;47.610;9.776;2023-04-25T13:33:26;1.10;;;0.90;;
7919;SDS011;18778;47.610;9.776;2023-04-25T13:35:52;1.00;;;1.00;;
7919;SDS011;18778;47.610;9.776;2023-04-25T13:38:24;1.00;;;1.00;;
7919;SDS011;18778;47.610;9.776;2023-04-25T13:40:51;1.03;;;1.03;;
7919;SDS011;18778;47.610;9.776;2023-04-25T13:43:18;0.90;;;0.90;;
7919;SDS011;18778;47.610;9.776;2023-04-25T13:45:48;1.03;;;1.03;;
7919;SDS011;18778;47.610;9.776;2023-04-25T13:48:14;1.03;;;1.03;;
7919;SDS011;18778;47.610;9.776;2023-04-25T13:50:39;1.23;;;1.00;;
7919;SDS011;18778;47.610;9.776;2023-04-25T13:53:05;0.70;;;0.70;;
7919;SDS011;18778;47.610;9.776;2023-04-25T13:55:31;1.00;;;1.00;;
7919;SDS011;18778;47.610;9.776;2023-04-25T13:57:57;0.93;;;0.93;;
7919;SDS011;18778;47.610;9.776;2023-04-25T14:00:22;0.70;;;0.70;;
7919;SDS011;18778;47.610;9.776;2023-04-25T14:02:48;0.80;;;0.80;;
7919;SDS011;18778;47.610;9.776;2023-04-25T14:05:14;0.80;;;0.80;;
7919;SDS011;18778;47.610;9.776;2023-04-25T14:07:40;0.93;;;0.93;;
7919;SDS011;18778;47.610;9.776;2023-04-25T14:10:06;0.80;;;0.80;;
7919;SDS011;18778;47.610;9.776;2023-04-25T14:12:32;1.10;;;1.10;;
7919;SDS011;18778;47.610;9.776;2023-04-25T14:14:58;1.00;;;1.00;;
7919;SDS011;18778;47.610;9.776;2023-04-25T14:17:23;0.90;;;0.90;;
7919;SDS011;18778;47.610;9.776;2023-04-25T14:19:49;0.80;;;0.80;;
7919;SDS011;18778;47.610;9.776;2023-04-25T14:22:15;1.00;;;1.00;;
7919;SDS011;18778;47.610;9.776;2023-04-25T14:24:41;1.00;;;1.00;;
7919;SDS011;18778;47.610;9.776;2023-04-25T14:27:06;0.87;;;0.87;;
7919;SDS011;18778;47.610;9.776;2023-04-25T14:29:33;1.00;;;1.00;;
7919;SDS011;18778;47.610;9.776;2023-04-25T14:31:58;1.10;;;1.10;;
7919;SDS011;18778;47.610;9.776;2023-04-25T14:34:24;1.43;;;1.20;;
7919;SDS011;18778;47.610;9.776;2023-04-25T14:36:51;1.60;;;1.50;;
7919;SDS011;18778;47.610;9.776;2023-04-25T14:39:17;1.40;;;1.40;;
7919;SDS011;18778;47.610;9.776;2023-04-25T14:41:43;1.70;;;1.60;;
7919;SDS011;18778;47.610;9.776;2023-04-25T14:44:09;1.60;;;1.50;;
7919;SDS011;18778;47.610;9.776;2023-04-25T14:46:35;2.30;;;2.20;;
7919;SDS011;18778;47.610;9.776;2023-04-25T14:49:01;3.00;;;2.30;;
7919;SDS011;18778;47.610;9.776;2023-04-25T14:51:27;2.90;;;2.60;;
7919;SDS011;18778;47.610;9.776;2023-04-25T14:53:52;3.13;;;2.47;;
7919;SDS011;18778;47.610;9.776;2023-04-25T14:56:18;2.73;;;2.53;;
7919;SDS011;18778;47.610;9.776;2023-04-25T14:58:44;2.80;;;2.60;;
7919;SDS011;18778;47.610;9.776;2023-04-25T15:01:10;4.43;;;2.53;;
7919;SDS011;18778;47.610;9.776;2023-04-25T15:03:37;2.77;;;2.57;;